sensor_id;sensor_type;location;lat;lon;timestamp;pressure;altitude;pressure_sealevel;temperature;humidity
38616;BME280;24370;51.986;4.666;2024-02-28T00:01:24;102068.69;;;16.99;36.20
38616;BME280;24370;51.986;4.666;2024-02-28T00:03:49;102072.34;;;16.90;36.65
38616;BME280;24370;51.986;4.666;2024-02-28T00:06:18;102065.06;;;17.04;36.41
38616;BME280;24370;51.986;4.666;2024-02-28T00:08:43;102064.34;;;16.94;36.33
38616;BME280;24370;51.986;4.666;2024-02-28T00:11:09;102057.81;;;17.16;36.24
38616;BME280;24370;51.986;4.666;2024-02-28T00:13:34;102060.84;;;17.42;35.80
38616;BME280;24370;51.986;4.666;2024-02-28T00:16:00;102057.06;;;17.54;35.71
38616;BME280;24370;51.986;4.666;2024-02-28T00:18:25;102053.75;;;17.44;35.63
38616;BME280;24370;51.986;4.666;2024-02-28T00:20:50;102057.47;;;17.34;35.79
38616;BME280;24370;51.986;4.666;2024-02-28T00:23:16;102063.66;;;16.82;36.50
38616;BME280;24370;51.986;4.666;2024-02-28T00:25:41;102062.16;;;16.65;36.88
38616;BME280;24370;51.986;4.666;2024-02-28T00:28:07;102059.69;;;17.10;35.81
38616;BME280;24370;51.986;4.666;2024-02-28T00:30:32;102063.09;;;17.16;35.12
38616;BME280;24370;51.986;4.666;2024-02-28T00:32:58;102065.75;;;16.61;36.65
38616;BME280;24370;51.986;4.666;2024-02-28T00:35:23;102074.06;;;16.33;37.23
38616;BME280;24370;51.986;4.666;2024-02-28T00:37:49;102072.34;;;15.59;38.30
38616;BME280;24370;51.986;4.666;2024-02-28T00:40:14;102069.13;;;16.08;37.23
38616;BME280;24370;51.986;4.666;2024-02-28T00:42:39;102064.81;;;15.23;38.88
38616;BME280;24370;51.986;4.666;2024-02-28T00:45:07;102062.19;;;16.01;38.05
38616;BME280;24370;51.986;4.666;2024-02-28T00:47:33;102063.84;;;16.08;37.55
38616;BME280;24370;51.986;4.666;2024-02-28T00:49:59;102060.88;;;16.33;37.29
38616;BME280;24370;51.986;4.666;2024-02-28T00:52:24;102069.44;;;15.87;38.19
38616;BME280;24370;51.986;4.666;2024-02-28T00:54:50;102068.56;;;16.50;36.68
38616;BME280;24370;51.986;4.666;2024-02-28T00:57:16;102069.41;;;16.51;36.69
38616;BME280;24370;51.986;4.666;2024-02-28T00:59:41;102064.13;;;16.51;36.72
38616;BME280;24370;51.986;4.666;2024-02-28T01:02:07;102061.16;;;16.72;36.73
38616;BME280;24370;51.986;4.666;2024-02-28T01:04:33;102064.59;;;16.76;36.53
38616;BME280;24370;51.986;4.666;2024-02-28T01:06:59;102071.31;;;15.72;38.06
38616;BME280;24370;51.986;4.666;2024-02-28T01:09:25;102075.88;;;16.31;37.23
38616;BME280;24370;51.986;4.666;2024-02-28T01:11:50;102064.84;;;16.62;36.37
38616;BME280;24370;51.986;4.666;2024-02-28T01:14:16;102071.09;;;15.92;37.80
38616;BME280;24370;51.986;4.666;2024-02-28T01:16:41;102073.22;;;16.31;37.06
38616;BME280;24370;51.986;4.666;2024-02-28T01:19:06;102069.69;;;16.32;37.09
38616;BME280;24370;51.986;4.666;2024-02-28T01:21:32;102064.59;;;16.20;36.99
38616;BME280;24370;51.986;4.666;2024-02-28T01:23:57;102054.53;;;16.47;36.84
38616;BME280;24370;51.986;4.666;2024-02-28T01:26:23;102065.69;;;16.02;37.21
38616;BME280;24370;51.986;4.666;2024-02-28T01:28:49;102057.63;;;16.13;37.31
38616;BME280;24370;51.986;4.666;2024-02-28T01:31:14;102067.09;;;16.27;36.89
38616;BME280;24370;51.986;4.666;2024-02-28T01:33:40;102062.25;;;16.59;36.42
38616;BME280;24370;51.986;4.666;2024-02-28T01:36:08;102063.00;;;16.06;37.83
38616;BME280;24370;51.986;4.666;2024-02-28T01:38:34;102062.75;;;16.25;37.57
38616;BME280;24370;51.986;4.666;2024-02-28T01:40:59;102061.84;;;16.27;37.62
38616;BME280;24370;51.986;4.666;2024-02-28T01:43:25;102055.16;;;16.03;37.62
38616;BME280;24370;51.986;4.666;2024-02-28T01:45:50;102055.22;;;16.58;36.39
38616;BME280;24370;51.986;4.666;2024-02-28T01:48:16;102060.56;;;16.55;36.80
38616;BME280;24370;51.986;4.666;2024-02-28T01:50:41;102049.16;;;16.53;36.46
38616;BME280;24370;51.986;4.666;2024-02-28T01:53:08;102057.94;;;16.53;36.49
38616;BME280;24370;51.986;4.666;2024-02-28T01:55:35;102048.34;;;16.48;36.70
38616;BME280;24370;51.986;4.666;2024-02-28T01:58:01;102055.97;;;16.05;37.49
38616;BME280;24370;51.986;4.666;2024-02-28T02:00:27;102053.56;;;16.51;36.98
38616;BME280;24370;51.986;4.666;2024-02-28T02:02:53;102058.59;;;16.69;36.80
38616;BME280;24370;51.986;4.666;2024-02-28T02:05:18;102055.19;;;16.61;37.05
38616;BME280;24370;51.986;4.666;2024-02-28T02:07:49;102050.63;;;16.71;36.69
38616;BME280;24370;51.986;4.666;2024-02-28T02:10:15;102051.63;;;16.62;37.27
38616;BME280;24370;51.986;4.666;2024-02-28T02:12:40;102037.34;;;16.75;37.13
38616;BME280;24370;51.986;4.666;2024-02-28T02:15:06;102036.28;;;16.87;37.09
38616;BME280;24370;51.986;4.666;2024-02-28T02:17:31;102036.97;;;17.47;36.24
38616;BME280;24370;51.986;4.666;2024-02-28T02:19:57;102043.03;;;16.51;37.94
38616;BME280;24370;51.986;4.666;2024-02-28T02:22:23;102040.69;;;16.29;38.36
38616;BME280;24370;51.986;4.666;2024-02-28T02:24:52;102035.44;;;17.35;36.86
38616;BME280;24370;51.986;4.666;2024-02-28T02:27:17;102045.50;;;17.15;37.19
38616;BME280;24370;51.986;4.666;2024-02-28T02:29:43;102041.63;;;16.28;38.94
38616;BME280;24370;51.986;4.666;2024-02-28T02:32:08;102042.84;;;16.61;38.42
38616;BME280;24370;51.986;4.666;2024-02-28T02:34:34;102042.69;;;16.72;38.29
38616;BME280;24370;51.986;4.666;2024-02-28T02:36:59;102055.28;;;15.92;39.38
38616;BME280;24370;51.986;4.666;2024-02-28T02:39:25;102054.13;;;16.71;38.48
38616;BME280;24370;51.986;4.666;2024-02-28T02:41:50;102053.53;;;17.08;37.61
38616;BME280;24370;51.986;4.666;2024-02-28T02:44:15;102050.59;;;17.24;37.47
38616;BME280;24370;51.986;4.666;2024-02-28T02:46:41;102047.69;;;16.89;37.64
38616;BME280;24370;51.986;4.666;2024-02-28T02:49:06;102045.50;;;17.61;36.74
38616;BME280;24370;51.986;4.666;2024-02-28T02:51:32;102045.19;;;16.80;38.04
38616;BME280;24370;51.986;4.666;2024-02-28T02:53:57;102041.09;;;17.15;37.87
38616;BME280;24370;51.986;4.666;2024-02-28T02:56:22;102038.19;;;17.29;37.43
38616;BME280;24370;51.986;4.666;2024-02-28T02:58:48;102045.09;;;16.86;37.83
38616;BME280;24370;51.986;4.666;2024-02-28T03:01:13;102036.72;;;17.12;37.59
38616;BME280;24370;51.986;4.666;2024-02-28T03:03:39;102038.06;;;16.85;38.11
38616;BME280;24370;51.986;4.666;2024-02-28T03:06:04;102038.16;;;16.23;39.31
38616;BME280;24370;51.986;4.666;2024-02-28T03:08:30;102049.91;;;16.00;39.47
38616;BME280;24370;51.986;4.666;2024-02-28T03:10:56;102041.84;;;17.22;37.35
38616;BME280;24370;51.986;4.666;2024-02-28T03:13:21;102027.13;;;17.54;36.79
38616;BME280;24370;51.986;4.666;2024-02-28T03:15:48;102039.50;;;17.53;37.11
38616;BME280;24370;51.986;4.666;2024-02-28T03:18:13;102042.19;;;17.03;37.64
38616;BME280;24370;51.986;4.666;2024-02-28T03:20:39;102043.75;;;17.13;37.43
38616;BME280;24370;51.986;4.666;2024-02-28T03:23:05;102050.78;;;16.61;38.62
38616;BME280;24370;51.986;4.666;2024-02-28T03:25:32;102039.59;;;17.00;37.99
38616;BME280;24370;51.986;4.666;2024-02-28T03:27:58;102033.66;;;16.86;38.33
38616;BME280;24370;51.986;4.666;2024-02-28T03:30:23;102035.50;;;16.81;38.21
38616;BME280;24370;51.986;4.666;2024-02-28T03:32:49;102031.84;;;17.38;37.52
38616;BME280;24370;51.986;4.666;2024-02-28T03:35:14;102034.03;;;16.64;38.85
38616;BME280;24370;51.986;4.666;2024-02-28T03:37:40;102027.47;;;16.87;38.42
38616;BME280;24370;51.986;4.666;2024-02-28T03:40:06;102027.47;;;16.87;38.39
38616;BME280;24370;51.986;4.666;2024-02-28T03:42:31;102025.88;;;16.78;38.77
38616;BME280;24370;51.986;4.666;2024-02-28T03:44:56;102027.41;;;16.93;38.56
38616;BME280;24370;51.986;4.666;2024-02-28T03:47:22;102022.91;;;16.98;38.27
38616;BME280;24370;51.986;4.666;2024-02-28T03:49:47;102026.56;;;16.88;38.53
38616;BME280;24370;51.986;4.666;2024-02-28T03:52:13;102022.41;;;17.70;37.33
38616;BME280;24370;51.986;4.666;2024-02-28T03:54:42;102027.53;;;16.84;38.60
38616;BME280;24370;51.986;4.666;2024-02-28T03:57:07;102029.66;;;17.15;38.09
38616;BME280;24370;51.986;4.666;2024-02-28T03:59:32;102030.91;;;17.40;37.62
38616;BME280;24370;51.986;4.666;2024-02-28T04:01:58;102031.81;;;16.91;38.41
38616;BME280;24370;51.986;4.666;2024-02-28T04:04:23;102032.72;;;16.35;39.49
38616;BME280;24370;51.986;4.666;2024-02-28T04:06:48;102033.25;;;15.98;40.52
38616;BME280;24370;51.986;4.666;2024-02-28T04:09:14;102030.03;;;16.93;38.56
38616;BME280;24370;51.986;4.666;2024-02-28T04:11:39;102029.97;;;17.87;36.99
38616;BME280;24370;51.986;4.666;2024-02-28T04:14:05;102039.84;;;16.85;38.58
38616;BME280;24370;51.986;4.666;2024-02-28T04:16:30;102034.34;;;17.45;37.96
38616;BME280;24370;51.986;4.666;2024-02-28T04:18:55;102025.44;;;17.04;38.53
38616;BME280;24370;51.986;4.666;2024-02-28T04:21:21;102040.59;;;17.41;37.58
38616;BME280;24370;51.986;4.666;2024-02-28T04:23:46;102037.09;;;16.91;38.71
38616;BME280;24370;51.986;4.666;2024-02-28T04:26:11;102038.41;;;17.17;38.10
38616;BME280;24370;51.986;4.666;2024-02-28T04:28:37;102047.19;;;17.19;38.28
38616;BME280;24370;51.986;4.666;2024-02-28T04:31:03;102045.56;;;16.55;39.50
38616;BME280;24370;51.986;4.666;2024-02-28T04:33:31;102049.22;;;17.04;38.68
38616;BME280;24370;51.986;4.666;2024-02-28T04:35:56;102057.91;;;16.55;39.38
38616;BME280;24370;51.986;4.666;2024-02-28T04:38:22;102068.84;;;16.30;39.58
38616;BME280;24370;51.986;4.666;2024-02-28T04:40:47;102061.63;;;16.99;38.47
38616;BME280;24370;51.986;4.666;2024-02-28T04:43:14;102065.22;;;16.95;38.67
38616;BME280;24370;51.986;4.666;2024-02-28T04:45:40;102071.00;;;17.64;37.34
38616;BME280;24370;51.986;4.666;2024-02-28T04:48:06;102074.22;;;17.78;37.50
38616;BME280;24370;51.986;4.666;2024-02-28T04:50:31;102074.94;;;17.41;37.89
38616;BME280;24370;51.986;4.666;2024-02-28T04:52:56;102072.97;;;17.53;37.88
38616;BME280;24370;51.986;4.666;2024-02-28T04:55:22;102075.47;;;17.13;38.15
38616;BME280;24370;51.986;4.666;2024-02-28T04:57:47;102065.75;;;17.61;38.13
38616;BME280;24370;51.986;4.666;2024-02-28T05:00:13;102071.00;;;17.64;37.40
38616;BME280;24370;51.986;4.666;2024-02-28T05:02:38;102069.72;;;18.26;36.54
38616;BME280;24370;51.986;4.666;2024-02-28T05:05:04;102066.84;;;17.96;36.86
38616;BME280;24370;51.986;4.666;2024-02-28T05:07:29;102065.66;;;17.67;37.15
38616;BME280;24370;51.986;4.666;2024-02-28T05:09:54;102067.47;;;17.17;38.39
38616;BME280;24370;51.986;4.666;2024-02-28T05:12:20;102070.78;;;18.17;36.97
38616;BME280;24370;51.986;4.666;2024-02-28T05:14:45;102068.50;;;16.53;39.56
38616;BME280;24370;51.986;4.666;2024-02-28T05:17:10;102068.78;;;17.42;38.55
38616;BME280;24370;51.986;4.666;2024-02-28T05:19:36;102067.13;;;17.37;38.53
38616;BME280;24370;51.986;4.666;2024-02-28T05:22:01;102067.69;;;17.53;38.63
38616;BME280;24370;51.986;4.666;2024-02-28T05:24:27;102067.06;;;17.40;38.51
38616;BME280;24370;51.986;4.666;2024-02-28T05:26:52;102072.09;;;17.52;38.12
38616;BME280;24370;51.986;4.666;2024-02-28T05:29:17;102066.13;;;17.42;38.99
38616;BME280;24370;51.986;4.666;2024-02-28T05:31:43;102064.84;;;17.17;39.36
38616;BME280;24370;51.986;4.666;2024-02-28T05:34:08;102061.97;;;17.74;38.31
38616;BME280;24370;51.986;4.666;2024-02-28T05:36:33;102063.91;;;18.10;37.77
38616;BME280;24370;51.986;4.666;2024-02-28T05:39:00;102070.34;;;17.04;39.39
38616;BME280;24370;51.986;4.666;2024-02-28T05:41:26;102061.72;;;17.87;38.08
38616;BME280;24370;51.986;4.666;2024-02-28T05:43:51;102070.00;;;17.70;38.17
38616;BME280;24370;51.986;4.666;2024-02-28T05:46:18;102067.81;;;17.46;38.94
38616;BME280;24370;51.986;4.666;2024-02-28T05:48:44;102059.72;;;17.07;39.63
38616;BME280;24370;51.986;4.666;2024-02-28T05:51:10;102069.59;;;17.44;39.07
38616;BME280;24370;51.986;4.666;2024-02-28T05:53:36;102064.06;;;17.57;38.94
38616;BME280;24370;51.986;4.666;2024-02-28T05:56:02;102064.84;;;17.62;38.74
38616;BME280;24370;51.986;4.666;2024-02-28T05:58:30;102070.41;;;17.01;39.88
38616;BME280;24370;51.986;4.666;2024-02-28T06:00:56;102059.22;;;17.79;38.78
38616;BME280;24370;51.986;4.666;2024-02-28T06:03:22;102064.38;;;17.41;39.51
38616;BME280;24370;51.986;4.666;2024-02-28T06:05:47;102055.00;;;16.73;40.67
38616;BME280;24370;51.986;4.666;2024-02-28T06:08:13;102062.63;;;17.40;39.78
38616;BME280;24370;51.986;4.666;2024-02-28T06:10:39;102065.03;;;17.98;38.50
38616;BME280;24370;51.986;4.666;2024-02-28T06:13:07;102073.41;;;17.31;39.30
38616;BME280;24370;51.986;4.666;2024-02-28T06:15:32;102071.69;;;16.74;40.85
38616;BME280;24370;51.986;4.666;2024-02-28T06:17:58;102066.59;;;16.61;40.77
38616;BME280;24370;51.986;4.666;2024-02-28T06:20:25;102068.56;;;17.06;40.51
38616;BME280;24370;51.986;4.666;2024-02-28T06:22:51;102069.59;;;16.96;40.33
38616;BME280;24370;51.986;4.666;2024-02-28T06:25:16;102071.97;;;17.11;40.22
38616;BME280;24370;51.986;4.666;2024-02-28T06:27:47;102082.91;;;16.87;40.27
38616;BME280;24370;51.986;4.666;2024-02-28T06:30:13;102091.00;;;16.17;42.35
38616;BME280;24370;51.986;4.666;2024-02-28T06:32:38;102090.78;;;16.31;41.81
38616;BME280;24370;51.986;4.666;2024-02-28T06:35:05;102082.91;;;16.87;41.22
38616;BME280;24370;51.986;4.666;2024-02-28T06:37:30;102097.44;;;16.58;41.42
38616;BME280;24370;51.986;4.666;2024-02-28T06:39:55;102095.91;;;17.01;40.59
38616;BME280;24370;51.986;4.666;2024-02-28T06:42:21;102113.63;;;16.36;41.71
38616;BME280;24370;51.986;4.666;2024-02-28T06:44:46;102118.25;;;16.79;41.34
38616;BME280;24370;51.986;4.666;2024-02-28T06:47:12;102125.16;;;16.87;40.87
38616;BME280;24370;51.986;4.666;2024-02-28T06:49:37;102112.00;;;16.85;40.85
38616;BME280;24370;51.986;4.666;2024-02-28T06:52:02;102117.00;;;17.05;40.67
38616;BME280;24370;51.986;4.666;2024-02-28T06:54:31;102107.59;;;16.86;41.21
38616;BME280;24370;51.986;4.666;2024-02-28T06:56:58;102111.34;;;17.27;40.48
38616;BME280;24370;51.986;4.666;2024-02-28T06:59:23;102119.69;;;17.02;40.23
38616;BME280;24370;51.986;4.666;2024-02-28T07:01:49;102125.72;;;16.50;42.02
38616;BME280;24370;51.986;4.666;2024-02-28T07:04:14;102114.59;;;16.87;41.61
38616;BME280;24370;51.986;4.666;2024-02-28T07:06:39;102119.00;;;17.42;40.25
38616;BME280;24370;51.986;4.666;2024-02-28T07:09:07;102117.53;;;17.26;40.36
38616;BME280;24370;51.986;4.666;2024-02-28T07:11:32;102118.13;;;16.89;41.41
38616;BME280;24370;51.986;4.666;2024-02-28T07:13:58;102123.03;;;17.13;40.72
38616;BME280;24370;51.986;4.666;2024-02-28T07:16:27;102118.19;;;17.37;40.56
38616;BME280;24370;51.986;4.666;2024-02-28T07:18:53;102119.44;;;17.18;41.06
38616;BME280;24370;51.986;4.666;2024-02-28T07:21:18;102121.38;;;17.06;41.02
38616;BME280;24370;51.986;4.666;2024-02-28T07:23:44;102117.44;;;17.30;40.86
38616;BME280;24370;51.986;4.666;2024-02-28T07:26:16;102131.22;;;16.98;41.68
38616;BME280;24370;51.986;4.666;2024-02-28T07:28:42;102140.47;;;15.99;43.24
38616;BME280;24370;51.986;4.666;2024-02-28T07:31:14;102139.22;;;16.26;43.15
38616;BME280;24370;51.986;4.666;2024-02-28T07:33:40;102139.06;;;17.01;41.85
38616;BME280;24370;51.986;4.666;2024-02-28T07:36:05;102147.16;;;16.25;43.17
38616;BME280;24370;51.986;4.666;2024-02-28T07:38:31;102136.63;;;16.89;41.64
38616;BME280;24370;51.986;4.666;2024-02-28T07:40:56;102139.59;;;16.64;42.47
38616;BME280;24370;51.986;4.666;2024-02-28T07:43:21;102143.06;;;16.66;42.62
38616;BME280;24370;51.986;4.666;2024-02-28T07:45:47;102138.38;;;17.88;40.33
38616;BME280;24370;51.986;4.666;2024-02-28T07:48:12;102137.59;;;17.36;41.62
38616;BME280;24370;51.986;4.666;2024-02-28T07:50:38;102154.09;;;16.35;43.55
38616;BME280;24370;51.986;4.666;2024-02-28T07:53:03;102147.53;;;17.22;42.09
38616;BME280;24370;51.986;4.666;2024-02-28T07:55:32;102149.09;;;17.82;40.61
38616;BME280;24370;51.986;4.666;2024-02-28T07:57:58;102156.25;;;17.27;41.02
38616;BME280;24370;51.986;4.666;2024-02-28T08:00:23;102149.03;;;19.07;38.38
38616;BME280;24370;51.986;4.666;2024-02-28T08:02:50;102163.69;;;18.03;40.33
38616;BME280;24370;51.986;4.666;2024-02-28T08:05:16;102167.47;;;18.34;40.05
38616;BME280;24370;51.986;4.666;2024-02-28T08:07:43;102163.47;;;17.67;41.71
38616;BME280;24370;51.986;4.666;2024-02-28T08:10:08;102166.97;;;18.14;40.68
38616;BME280;24370;51.986;4.666;2024-02-28T08:12:35;102171.16;;;18.67;39.08
38616;BME280;24370;51.986;4.666;2024-02-28T08:15:01;102164.41;;;18.54;39.76
38616;BME280;24370;51.986;4.666;2024-02-28T08:17:26;102169.75;;;18.08;41.03
38616;BME280;24370;51.986;4.666;2024-02-28T08:19:51;102173.84;;;17.28;41.69
38616;BME280;24370;51.986;4.666;2024-02-28T08:22:17;102178.50;;;18.12;40.56
38616;BME280;24370;51.986;4.666;2024-02-28T08:24:42;102199.09;;;16.87;42.81
38616;BME280;24370;51.986;4.666;2024-02-28T08:27:07;102190.81;;;18.13;40.74
38616;BME280;24370;51.986;4.666;2024-02-28T08:29:33;102197.41;;;17.92;40.70
38616;BME280;24370;51.986;4.666;2024-02-28T08:32:00;102194.25;;;17.71;41.39
38616;BME280;24370;51.986;4.666;2024-02-28T08:34:26;102196.50;;;18.38;40.36
38616;BME280;24370;51.986;4.666;2024-02-28T08:36:51;102201.66;;;18.44;40.67
38616;BME280;24370;51.986;4.666;2024-02-28T08:39:17;102206.56;;;18.63;40.13
38616;BME280;24370;51.986;4.666;2024-02-28T08:41:42;102207.13;;;18.35;40.77
38616;BME280;24370;51.986;4.666;2024-02-28T08:44:08;102204.88;;;17.15;43.11
38616;BME280;24370;51.986;4.666;2024-02-28T08:46:33;102204.22;;;16.99;43.14
38616;BME280;24370;51.986;4.666;2024-02-28T08:48:58;102195.19;;;18.16;41.08
38616;BME280;24370;51.986;4.666;2024-02-28T08:51:24;102205.19;;;18.43;40.77
38616;BME280;24370;51.986;4.666;2024-02-28T08:53:49;102202.41;;;18.07;40.89
38616;BME280;24370;51.986;4.666;2024-02-28T08:56:17;102193.25;;;17.27;42.87
38616;BME280;24370;51.986;4.666;2024-02-28T08:58:42;102192.38;;;17.25;42.62
38616;BME280;24370;51.986;4.666;2024-02-28T09:01:13;102180.94;;;17.76;41.90
38616;BME280;24370;51.986;4.666;2024-02-28T09:03:38;102191.97;;;17.50;42.48
38616;BME280;24370;51.986;4.666;2024-02-28T09:06:04;102192.66;;;17.61;42.39
38616;BME280;24370;51.986;4.666;2024-02-28T09:08:29;102182.97;;;17.61;42.45
38616;BME280;24370;51.986;4.666;2024-02-28T09:10:54;102193.56;;;18.08;41.87
38616;BME280;24370;51.986;4.666;2024-02-28T09:13:20;102193.56;;;18.52;40.57
38616;BME280;24370;51.986;4.666;2024-02-28T09:15:45;102184.41;;;18.25;41.10
38616;BME280;24370;51.986;4.666;2024-02-28T09:18:10;102184.56;;;19.00;40.38
38616;BME280;24370;51.986;4.666;2024-02-28T09:20:36;102195.72;;;18.33;41.52
38616;BME280;24370;51.986;4.666;2024-02-28T09:23:01;102194.59;;;18.43;40.97
38616;BME280;24370;51.986;4.666;2024-02-28T09:25:27;102195.09;;;18.20;42.20
38616;BME280;24370;51.986;4.666;2024-02-28T09:27:52;102195.94;;;18.64;41.89
38616;BME280;24370;51.986;4.666;2024-02-28T09:30:17;102186.22;;;19.73;38.97
38616;BME280;24370;51.986;4.666;2024-02-28T09:32:43;102189.38;;;19.88;38.97
38616;BME280;24370;51.986;4.666;2024-02-28T09:35:09;102192.69;;;20.27;38.07
38616;BME280;24370;51.986;4.666;2024-02-28T09:37:37;102192.66;;;19.97;38.60
38616;BME280;24370;51.986;4.666;2024-02-28T09:40:02;102197.00;;;20.00;38.90
38616;BME280;24370;51.986;4.666;2024-02-28T09:42:31;102190.84;;;20.89;37.92
38616;BME280;24370;51.986;4.666;2024-02-28T09:45:00;102190.50;;;19.79;39.23
38616;BME280;24370;51.986;4.666;2024-02-28T09:47:26;102199.31;;;20.12;39.28
38616;BME280;24370;51.986;4.666;2024-02-28T09:49:53;102192.13;;;20.77;38.04
38616;BME280;24370;51.986;4.666;2024-02-28T09:52:21;102192.09;;;19.52;40.26
38616;BME280;24370;51.986;4.666;2024-02-28T09:54:47;102193.72;;;19.23;40.73
38616;BME280;24370;51.986;4.666;2024-02-28T09:57:12;102195.81;;;19.44;40.44
38616;BME280;24370;51.986;4.666;2024-02-28T09:59:39;102190.59;;;19.41;40.91
38616;BME280;24370;51.986;4.666;2024-02-28T10:02:09;102191.28;;;19.48;41.12
38616;BME280;24370;51.986;4.666;2024-02-28T10:04:36;102185.81;;;19.56;40.81
38616;BME280;24370;51.986;4.666;2024-02-28T10:07:12;102191.47;;;19.42;41.38
38616;BME280;24370;51.986;4.666;2024-02-28T10:09:38;102181.91;;;19.36;41.04
38616;BME280;24370;51.986;4.666;2024-02-28T10:12:04;102179.22;;;20.04;40.40
38616;BME280;24370;51.986;4.666;2024-02-28T10:14:30;102175.25;;;20.19;39.76
38616;BME280;24370;51.986;4.666;2024-02-28T10:16:55;102170.88;;;20.17;39.64
38616;BME280;24370;51.986;4.666;2024-02-28T10:19:21;102182.06;;;18.52;42.88
38616;BME280;24370;51.986;4.666;2024-02-28T10:21:46;102165.50;;;20.19;40.29
38616;BME280;24370;51.986;4.666;2024-02-28T10:24:12;102163.16;;;19.75;41.02
38616;BME280;24370;51.986;4.666;2024-02-28T10:26:44;102164.34;;;20.29;40.30
38616;BME280;24370;51.986;4.666;2024-02-28T10:29:10;102163.31;;;20.62;40.29
38616;BME280;24370;51.986;4.666;2024-02-28T10:31:35;102172.25;;;20.31;40.27
38616;BME280;24370;51.986;4.666;2024-02-28T10:34:02;102175.50;;;19.43;41.64
38616;BME280;24370;51.986;4.666;2024-02-28T10:36:32;102168.25;;;19.85;40.60
38616;BME280;24370;51.986;4.666;2024-02-28T10:38:58;102168.66;;;20.02;40.46
38616;BME280;24370;51.986;4.666;2024-02-28T10:41:25;102168.75;;;19.66;40.59
38616;BME280;24370;51.986;4.666;2024-02-28T10:43:51;102168.22;;;21.04;38.51
38616;BME280;24370;51.986;4.666;2024-02-28T10:46:20;102163.53;;;21.90;38.07
38616;BME280;24370;51.986;4.666;2024-02-28T10:48:46;102171.63;;;22.10;37.25
38616;BME280;24370;51.986;4.666;2024-02-28T10:51:15;102167.28;;;23.21;35.33
38616;BME280;24370;51.986;4.666;2024-02-28T10:53:42;102181.41;;;21.34;37.09
38616;BME280;24370;51.986;4.666;2024-02-28T10:56:10;102179.53;;;21.11;38.00
38616;BME280;24370;51.986;4.666;2024-02-28T10:58:36;102174.09;;;21.14;38.10
38616;BME280;24370;51.986;4.666;2024-02-28T11:01:05;102172.53;;;22.11;36.55
38616;BME280;24370;51.986;4.666;2024-02-28T11:03:31;102175.03;;;21.65;36.52
38616;BME280;24370;51.986;4.666;2024-02-28T11:05:57;102178.28;;;20.94;37.66
38616;BME280;24370;51.986;4.666;2024-02-28T11:08:24;102177.22;;;21.00;38.55
38616;BME280;24370;51.986;4.666;2024-02-28T11:13:26;102168.97;;;20.51;38.48
38616;BME280;24370;51.986;4.666;2024-02-28T11:15:52;102171.53;;;20.84;38.37
38616;BME280;24370;51.986;4.666;2024-02-28T11:18:18;102172.94;;;21.23;37.82
38616;BME280;24370;51.986;4.666;2024-02-28T11:20:44;102164.75;;;21.02;38.06
38616;BME280;24370;51.986;4.666;2024-02-28T11:23:12;102168.91;;;21.36;37.46
38616;BME280;24370;51.986;4.666;2024-02-28T11:25:39;102170.47;;;21.16;37.81
38616;BME280;24370;51.986;4.666;2024-02-28T11:28:05;102167.13;;;21.89;36.73
38616;BME280;24370;51.986;4.666;2024-02-28T11:30:30;102174.34;;;20.79;38.53
38616;BME280;24370;51.986;4.666;2024-02-28T11:32:56;102167.16;;;20.53;38.50
38616;BME280;24370;51.986;4.666;2024-02-28T11:35:26;102164.94;;;20.96;38.15
38616;BME280;24370;51.986;4.666;2024-02-28T11:37:54;102165.97;;;20.33;39.46
38616;BME280;24370;51.986;4.666;2024-02-28T11:40:23;102159.63;;;20.39;39.45
38616;BME280;24370;51.986;4.666;2024-02-28T11:42:50;102151.78;;;20.93;38.71
38616;BME280;24370;51.986;4.666;2024-02-28T11:45:15;102153.47;;;20.07;39.91
38616;BME280;24370;51.986;4.666;2024-02-28T11:47:41;102153.66;;;20.61;38.73
38616;BME280;24370;51.986;4.666;2024-02-28T11:50:07;102150.25;;;20.84;38.70
38616;BME280;24370;51.986;4.666;2024-02-28T11:52:33;102137.72;;;21.68;37.50
38616;BME280;24370;51.986;4.666;2024-02-28T11:54:58;102147.50;;;20.29;39.27
38616;BME280;24370;51.986;4.666;2024-02-28T11:57:25;102151.16;;;21.11;38.46
38616;BME280;24370;51.986;4.666;2024-02-28T11:59:51;102148.88;;;21.52;37.61
38616;BME280;24370;51.986;4.666;2024-02-28T12:02:17;102152.66;;;21.72;37.42
38616;BME280;24370;51.986;4.666;2024-02-28T12:04:43;102158.16;;;20.57;39.30
38616;BME280;24370;51.986;4.666;2024-02-28T12:07:09;102149.09;;;20.36;39.44
38616;BME280;24370;51.986;4.666;2024-02-28T12:09:34;102149.50;;;21.34;38.30
38616;BME280;24370;51.986;4.666;2024-02-28T12:12:00;102143.72;;;21.73;37.40
38616;BME280;24370;51.986;4.666;2024-02-28T12:14:26;102153.44;;;21.74;37.39
38616;BME280;24370;51.986;4.666;2024-02-28T12:16:52;102152.28;;;19.86;40.08
38616;BME280;24370;51.986;4.666;2024-02-28T12:19:17;102141.38;;;20.85;38.45
38616;BME280;24370;51.986;4.666;2024-02-28T12:21:45;102154.75;;;19.94;40.14
38616;BME280;24370;51.986;4.666;2024-02-28T12:24:11;102147.81;;;20.48;39.53
38616;BME280;24370;51.986;4.666;2024-02-28T12:26:37;102144.31;;;20.76;39.01
38616;BME280;24370;51.986;4.666;2024-02-28T12:29:03;102148.06;;;20.70;38.97
38616;BME280;24370;51.986;4.666;2024-02-28T12:31:32;102133.28;;;20.88;39.50
38616;BME280;24370;51.986;4.666;2024-02-28T12:33:57;102139.28;;;20.08;39.87
38616;BME280;24370;51.986;4.666;2024-02-28T12:36:23;102127.28;;;20.83;39.06
38616;BME280;24370;51.986;4.666;2024-02-28T12:38:48;102131.38;;;21.20;38.23
38616;BME280;24370;51.986;4.666;2024-02-28T12:41:14;102134.28;;;21.12;38.26
38616;BME280;24370;51.986;4.666;2024-02-28T12:43:40;102135.97;;;20.60;38.67
38616;BME280;24370;51.986;4.666;2024-02-28T12:46:06;102144.44;;;20.43;38.83